Time;durP1;ratioP1;P1;durP2;ratioP2;P2;SDS_P1;SDS_P2;PMS_P1;PMS_P2;Temp;Humidity;BMP_temperature;BMP_pressure;BME280_temperature;BME280_humidity;BME280_pressure;Samples;Min_cycle;Max_cycle;Signal;HPM_P1;HPM_P2
2023/05/25 00:01:11;;;;;;;6.15;3.30;;;;;;;;;;10479119;28;20216;-80
2023/05/25 00:06:12;;;;;;;4.82;3.35;;;;;;;;;;10481534;28;20210;-80
2023/05/25 00:11:13;;;;;;;4.93;3.58;;;;;;;;;;10488354;28;20226;-79
2023/05/25 00:16:14;;;;;;;3.53;3.30;;;;;;;;;;10462370;28;20239;-80
2023/05/25 00:21:15;;;;;;;5.82;3.70;;;;;;;;;;10480478;28;20221;-82
2023/05/25 00:26:16;;;;;;;3.95;3.35;;;;;;;;;;10498072;28;20309;-80
2023/05/25 00:31:17;;;;;;;5.65;3.60;;;;;;;;;;10486950;28;20234;-80
2023/05/25 00:36:18;;;;;;;7.88;3.60;;;;;;;;;;10474092;28;20221;-80
2023/05/25 00:41:19;;;;;;;7.55;2.97;;;;;;;;;;10473651;28;20217;-80
2023/05/25 00:46:21;;;;;;;4.32;3.42;;;;;;;;;;10469899;28;20982;-80
2023/05/25 00:51:22;;;;;;;5.70;3.40;;;;;;;;;;10473366;28;20309;-81
2023/05/25 00:56:27;;;;;;;6.53;2.97;;;;;;;;;;10472188;28;20218;-80
2023/05/25 01:01:32;;;;;;;4.25;2.88;;;;;;;;;;10473770;28;20222;-80
2023/05/25 01:06:35;;;;;;;2.67;2.47;;;;;;;;;;10465859;28;20217;-80
2023/05/25 01:11:38;;;;;;;7.10;3.35;;;;;;;;;;10494759;28;20241;-83
2023/05/25 01:16:41;;;;;;;4.18;2.70;;;;;;;;;;10497578;28;20297;-81
2023/05/25 01:22:03;;;;;;;5.43;2.90;;;;;;;;;;10479562;28;20221;-82
2023/05/25 01:27:16;;;;;;;3.85;3.47;;;;;;;;;;10495691;28;20210;-81
2023/05/25 01:32:18;;;;;;;2.95;2.70;;;;;;;;;;10475357;28;20228;-80
2023/05/25 01:37:22;;;;;;;3.60;2.55;;;;;;;;;;10481374;28;20222;-80
2023/05/25 01:42:23;;;;;;;5.82;3.17;;;;;;;;;;10473007;28;20254;-79
2023/05/25 01:47:31;;;;;;;4.53;3.13;;;;;;;;;;10485681;28;20207;-80
2023/05/25 01:52:35;;;;;;;7.55;3.00;;;;;;;;;;10490137;28;20249;-81
2023/05/25 01:57:40;;;;;;;2.90;2.67;;;;;;;;;;10489548;28;20221;-81
2023/05/25 02:02:42;;;;;;;5.28;2.40;;;;;;;;;;10475733;28;20222;-80
2023/05/25 02:07:43;;;;;;;3.90;2.88;;;;;;;;;;10482021;28;20222;-80
2023/05/25 02:12:45;;;;;;;3.63;2.42;;;;;;;;;;10472525;28;20218;-80
2023/05/25 02:17:46;;;;;;;4.75;2.90;;;;;;;;;;10465972;28;20296;-80
2023/05/25 02:22:47;;;;;;;6.45;3.58;;;;;;;;;;10483412;28;20221;-80
2023/05/25 02:27:48;;;;;;;7.30;3.55;;;;;;;;;;10485807;28;20210;-80
2023/05/25 02:32:49;;;;;;;3.58;2.90;;;;;;;;;;10482475;28;20687;-79
2023/05/25 02:37:50;;;;;;;4.85;3.17;;;;;;;;;;10484848;28;20860;-80
2023/05/25 02:42:51;;;;;;;7.47;3.47;;;;;;;;;;10490307;28;20221;-82
2023/05/25 02:47:52;;;;;;;4.35;3.03;;;;;;;;;;10473508;28;20789;-80
2023/05/25 02:52:55;;;;;;;6.40;3.58;;;;;;;;;;10462921;28;20210;-80
2023/05/25 02:57:57;;;;;;;6.78;3.47;;;;;;;;;;10477741;28;20218;-80
2023/05/25 03:03:16;;;;;;;5.30;3.22;;;;;;;;;;10493829;28;20224;-80
2023/05/25 03:08:17;;;;;;;5.10;3.03;;;;;;;;;;10483479;28;20214;-80
2023/05/25 03:13:19;;;;;;;4.38;3.08;;;;;;;;;;10453326;28;20245;-80
2023/05/25 03:18:20;;;;;;;3.22;2.92;;;;;;;;;;10459364;28;20225;-80
2023/05/25 03:23:21;;;;;;;3.88;3.55;;;;;;;;;;10498931;28;20211;-80
2023/05/25 03:28:25;;;;;;;4.72;3.17;;;;;;;;;;10469897;28;20222;-80
2023/05/25 03:33:27;;;;;;;6.60;3.67;;;;;;;;;;10470725;28;20223;-80
2023/05/25 03:38:28;;;;;;;4.50;2.80;;;;;;;;;;10474328;28;20222;-80
2023/05/25 03:43:29;;;;;;;3.83;3.42;;;;;;;;;;10472030;28;20224;-80
2023/05/25 03:48:31;;;;;;;8.85;4.45;;;;;;;;;;10468290;28;20225;-80
2023/05/25 03:53:32;;;;;;;9.65;4.18;;;;;;;;;;10502227;28;20298;-80
2023/05/25 03:58:33;;;;;;;6.63;4.63;;;;;;;;;;10494187;28;20222;-80
2023/05/25 04:03:34;;;;;;;6.47;4.10;;;;;;;;;;10473138;28;20222;-80
2023/05/25 04:08:35;;;;;;;8.98;5.10;;;;;;;;;;10465191;28;20225;-82
2023/05/25 04:14:01;;;;;;;10.15;5.53;;;;;;;;;;10473138;28;20238;-83
2023/05/25 04:19:05;;;;;;;9.45;6.38;;;;;;;;;;10461571;28;20588;-83
2023/05/25 04:24:06;;;;;;;15.35;6.25;;;;;;;;;;10456412;28;20233;-82
2023/05/25 04:29:09;;;;;;;12.18;5.28;;;;;;;;;;10493500;22;20235;-80
2023/05/25 04:50:54;;;;;;;7.90;6.00;;;;;;;;;;11987413;23;20600;-78
